createdAt,value
2022-08-17T00:00:49.269Z,17.15
2022-08-17T00:01:51.847Z,17.14
2022-08-17T00:02:38.335Z,17.13
2022-08-17T00:03:38.022Z,17.11
2022-08-17T00:04:36.012Z,17.08
2022-08-17T00:05:36.010Z,17.03
2022-08-17T00:06:35.990Z,17.00
2022-08-17T00:07:35.979Z,16.98
2022-08-17T00:08:35.961Z,16.98
2022-08-17T00:09:35.941Z,16.96
2022-08-17T00:10:35.971Z,16.95
2022-08-17T00:11:35.922Z,16.92
2022-08-17T00:12:42.870Z,16.92
2022-08-17T00:13:36.891Z,16.93
2022-08-17T00:14:35.892Z,16.92
2022-08-17T00:15:35.903Z,16.90
2022-08-17T00:16:55.470Z,16.89
2022-08-17T00:17:36.845Z,16.88
2022-08-17T00:19:01.477Z,16.89
2022-08-17T00:19:36.815Z,16.88
2022-08-17T00:20:35.819Z,16.86
2022-08-17T00:21:57.913Z,16.80
2022-08-17T00:22:36.975Z,16.78
2022-08-17T00:23:35.763Z,16.78
2022-08-17T00:24:35.757Z,16.74
2022-08-17T00:25:35.746Z,16.71
2022-08-17T00:26:45.139Z,16.70
2022-08-17T00:27:36.709Z,16.68
2022-08-17T00:28:35.704Z,16.68
2022-08-17T00:29:35.691Z,16.65
2022-08-17T00:30:52.914Z,16.63
2022-08-17T00:31:36.657Z,16.63
2022-08-17T00:33:13.602Z,16.62
2022-08-17T00:33:36.647Z,16.59
2022-08-17T00:34:35.627Z,16.60
2022-08-17T00:35:35.617Z,16.60
2022-08-17T00:36:35.597Z,16.59
2022-08-17T00:37:35.577Z,16.59
2022-08-17T00:38:35.575Z,16.60
2022-08-17T00:39:35.616Z,16.56
2022-08-17T00:40:44.291Z,16.58
2022-08-17T00:41:36.530Z,16.59
2022-08-17T00:42:36.521Z,16.58
2022-08-17T00:43:35.511Z,16.56
2022-08-17T00:44:35.520Z,16.56
2022-08-17T00:45:35.480Z,16.55
2022-08-17T00:46:35.468Z,16.52
2022-08-17T00:47:35.454Z,16.53
2022-08-17T00:48:35.441Z,16.53
2022-08-17T00:49:35.420Z,16.50
2022-08-17T00:50:35.421Z,16.49
2022-08-17T00:51:35.399Z,16.49
2022-08-17T00:52:35.390Z,16.49
2022-08-17T00:53:35.372Z,16.49
2022-08-17T00:54:40.962Z,16.41
2022-08-17T00:55:36.351Z,16.38
2022-08-17T00:56:35.345Z,16.34
2022-08-17T00:57:35.324Z,16.33
2022-08-17T00:58:36.315Z,16.27
2022-08-17T00:59:35.299Z,16.26
2022-08-17T01:00:35.284Z,16.26
2022-08-17T01:01:35.329Z,16.26
2022-08-17T01:02:42.843Z,16.26
2022-08-17T01:03:36.243Z,16.26
2022-08-17T01:04:35.234Z,16.26
2022-08-17T01:05:35.226Z,16.26
2022-08-17T01:06:35.212Z,16.26
2022-08-17T01:07:35.193Z,16.26
2022-08-17T01:08:35.182Z,16.23
2022-08-17T01:09:35.165Z,16.20
2022-08-17T01:11:00.628Z,16.15
2022-08-17T01:11:36.133Z,16.15
2022-08-17T01:12:35.134Z,16.14
2022-08-17T01:13:40.427Z,16.15
2022-08-17T01:14:36.105Z,16.15
2022-08-17T01:15:35.096Z,16.15
2022-08-17T01:16:35.077Z,16.15
2022-08-17T01:17:35.065Z,16.16
2022-08-17T01:18:35.058Z,16.16
2022-08-17T01:19:35.036Z,16.16
2022-08-17T01:20:47.532Z,16.14
2022-08-17T01:21:36.008Z,16.11
2022-08-17T01:22:35.006Z,16.09
2022-08-17T01:23:34.987Z,16.06
2022-08-17T01:24:34.967Z,16.04
2022-08-17T01:25:35.946Z,16.00
2022-08-17T01:26:34.971Z,15.99
2022-08-17T01:27:34.937Z,15.96
2022-08-17T01:28:53.876Z,15.96
2022-08-17T01:29:35.909Z,15.94
2022-08-17T01:30:57.127Z,15.92
2022-08-17T01:31:35.874Z,15.89
2022-08-17T01:32:34.877Z,15.85
2022-08-17T01:33:34.852Z,15.84
2022-08-17T01:34:43.322Z,15.82
2022-08-17T01:35:35.839Z,15.82
2022-08-17T01:36:34.811Z,15.82
2022-08-17T01:37:34.798Z,15.84
2022-08-17T01:38:34.790Z,15.86
2022-08-17T01:39:34.809Z,15.86
2022-08-17T01:40:34.774Z,15.84
2022-08-17T01:41:34.752Z,15.84
2022-08-17T01:42:34.739Z,15.84
2022-08-17T01:43:34.721Z,15.81
2022-08-17T01:44:34.712Z,15.84
2022-08-17T01:45:34.700Z,15.84
2022-08-17T01:46:34.681Z,15.85
2022-08-17T01:47:35.414Z,15.86
2022-08-17T01:48:34.654Z,15.88
2022-08-17T01:49:34.635Z,15.86
2022-08-17T01:50:34.634Z,15.89
2022-08-17T01:51:34.602Z,15.89
2022-08-17T01:52:34.597Z,15.89
2022-08-17T01:53:34.583Z,15.86
2022-08-17T01:54:34.565Z,15.86
2022-08-17T01:55:34.565Z,15.85
2022-08-17T01:56:35.544Z,15.85
2022-08-17T01:57:34.535Z,15.86
2022-08-17T01:58:34.525Z,15.85
2022-08-17T01:59:34.505Z,15.86
2022-08-17T02:00:59.610Z,15.85
2022-08-17T02:01:35.474Z,15.84
2022-08-17T02:02:34.464Z,15.84
2022-08-17T02:03:34.444Z,15.82
2022-08-17T02:04:34.445Z,15.84
2022-08-17T02:05:34.425Z,15.82
2022-08-17T02:06:44.798Z,15.81
2022-08-17T02:07:47.964Z,15.81
2022-08-17T02:08:39.060Z,15.81
2022-08-17T02:09:35.367Z,15.78
2022-08-17T02:10:35.367Z,15.75
2022-08-17T02:11:35.346Z,15.74
2022-08-17T02:12:38.103Z,15.72
2022-08-17T02:13:35.329Z,15.70
2022-08-17T02:14:34.307Z,15.68
2022-08-17T02:15:34.308Z,15.63
2022-08-17T02:16:37.677Z,15.59
2022-08-17T02:17:34.269Z,15.54
2022-08-17T02:18:34.258Z,15.51
2022-08-17T02:19:34.248Z,15.54
2022-08-17T02:20:41.493Z,15.56
2022-08-17T02:21:35.229Z,15.56
2022-08-17T02:22:34.208Z,15.59
2022-08-17T02:23:34.191Z,15.59
2022-08-17T02:24:58.627Z,15.59
2022-08-17T02:25:35.169Z,15.60
2022-08-17T02:26:34.150Z,15.60
2022-08-17T02:27:34.168Z,15.57
2022-08-17T02:28:34.196Z,15.52
2022-08-17T02:29:34.182Z,15.49
2022-08-17T02:31:01.205Z,15.46
2022-08-17T02:31:35.076Z,15.45
2022-08-17T02:32:34.072Z,15.43
2022-08-17T02:33:41.637Z,15.41
2022-08-17T02:34:35.154Z,15.39
2022-08-17T02:35:34.041Z,15.39
2022-08-17T02:36:34.036Z,15.38
2022-08-17T02:37:34.002Z,15.41
2022-08-17T02:38:34.031Z,15.41
2022-08-17T02:39:36.077Z,15.45
2022-08-17T02:40:36.544Z,15.48
2022-08-17T02:41:33.951Z,15.46
2022-08-17T02:42:33.944Z,15.48
2022-08-17T02:43:33.963Z,15.46
2022-08-17T02:44:38.873Z,15.46
2022-08-17T02:45:34.934Z,15.48
2022-08-17T02:46:34.913Z,15.48
2022-08-17T02:47:33.893Z,15.51
2022-08-17T02:48:34.924Z,15.49
2022-08-17T02:49:33.905Z,15.49
2022-08-17T02:50:33.946Z,15.49
2022-08-17T02:51:33.914Z,15.52
2022-08-17T02:52:42.294Z,15.52
2022-08-17T02:53:35.785Z,15.52
2022-08-17T02:54:40.775Z,15.49
2022-08-17T02:55:34.775Z,15.51
2022-08-17T02:56:33.755Z,15.51
2022-08-17T02:57:33.745Z,15.51
2022-08-17T02:58:35.217Z,15.51
2022-08-17T02:59:33.697Z,15.49
2022-08-17T03:00:33.704Z,15.51
2022-08-17T03:01:33.677Z,15.51
2022-08-17T03:02:33.676Z,15.51
2022-08-17T03:03:33.652Z,15.48
2022-08-17T03:04:35.254Z,15.49
2022-08-17T03:05:33.628Z,15.49
2022-08-17T03:06:33.618Z,15.48
2022-08-17T03:07:33.598Z,15.46
2022-08-17T03:08:33.586Z,15.48
2022-08-17T03:09:33.568Z,15.48
2022-08-17T03:10:33.573Z,15.45
2022-08-17T03:11:33.653Z,15.46
2022-08-17T03:12:33.560Z,15.45
2022-08-17T03:13:33.508Z,15.46
2022-08-17T03:14:36.993Z,15.42
2022-08-17T03:15:34.488Z,15.43
2022-08-17T03:16:33.570Z,15.42
2022-08-17T03:17:33.479Z,15.42
2022-08-17T03:18:33.440Z,15.45
2022-08-17T03:19:33.493Z,15.43
2022-08-17T03:20:33.441Z,15.43
2022-08-17T03:21:33.474Z,15.46
2022-08-17T03:22:36.277Z,15.45
2022-08-17T03:23:33.372Z,15.42
2022-08-17T03:24:56.422Z,15.41
2022-08-17T03:25:33.361Z,15.42
2022-08-17T03:26:33.341Z,15.39
2022-08-17T03:27:33.333Z,15.41
2022-08-17T03:28:33.323Z,15.43
2022-08-17T03:29:33.362Z,15.45
2022-08-17T03:30:33.308Z,15.46
2022-08-17T03:31:33.275Z,15.46
2022-08-17T03:32:33.355Z,15.48
2022-08-17T03:33:33.247Z,15.48
2022-08-17T03:34:33.292Z,15.46
2022-08-17T03:35:33.244Z,15.46
2022-08-17T03:36:36.149Z,15.48
2022-08-17T03:37:33.197Z,15.49
2022-08-17T03:38:39.050Z,15.49
2022-08-17T03:39:34.276Z,15.51
2022-08-17T03:40:55.545Z,15.49
2022-08-17T03:41:34.226Z,15.48
2022-08-17T03:42:33.187Z,15.46
2022-08-17T03:43:33.159Z,15.49
2022-08-17T03:44:33.157Z,15.52
2022-08-17T03:45:33.167Z,15.52
2022-08-17T03:46:35.284Z,15.54
2022-08-17T03:47:33.075Z,15.56
2022-08-17T04:03:23.465Z,15.49
2022-08-17T04:04:27.536Z,15.48
2022-08-17T04:05:23.439Z,15.48
2022-08-17T04:06:23.433Z,15.43
2022-08-17T04:07:23.426Z,15.42
2022-08-17T04:08:23.395Z,15.38
2022-08-17T04:09:23.387Z,15.39
2022-08-17T04:10:26.401Z,15.39
2022-08-17T04:11:23.377Z,15.38
2022-08-17T04:12:23.339Z,15.39
2022-08-17T04:13:24.864Z,15.39
2022-08-17T04:14:23.310Z,15.41
2022-08-17T04:15:23.308Z,15.42
2022-08-17T04:16:31.988Z,15.42
2022-08-17T04:17:23.290Z,15.43
2022-08-17T04:18:23.259Z,15.45
2022-08-17T04:19:23.251Z,15.43
2022-08-17T04:20:23.240Z,15.43
2022-08-17T04:21:23.228Z,15.43
2022-08-17T04:22:32.818Z,15.43
2022-08-17T04:23:24.199Z,15.45
2022-08-17T04:24:23.198Z,15.42
2022-08-17T04:25:23.177Z,15.41
2022-08-17T04:26:54.181Z,15.41
2022-08-17T04:27:24.160Z,15.38
2022-08-17T04:28:23.140Z,15.38
2022-08-17T04:29:23.119Z,15.36
2022-08-17T04:30:23.110Z,15.36
2022-08-17T04:31:23.090Z,15.36
2022-08-17T04:32:25.172Z,15.33
2022-08-17T04:33:24.080Z,15.36
2022-08-17T04:34:23.071Z,15.35
2022-08-17T04:35:23.045Z,15.35
2022-08-17T04:36:23.030Z,15.36
2022-08-17T04:37:23.055Z,15.38
2022-08-17T04:38:23.011Z,15.41
2022-08-17T04:39:22.991Z,15.42
2022-08-17T04:40:22.996Z,15.42
2022-08-17T04:41:22.962Z,15.41
2022-08-17T04:42:22.960Z,15.41
2022-08-17T04:43:22.953Z,15.39
2022-08-17T04:44:36.941Z,15.42
2022-08-17T04:45:23.921Z,15.42
2022-08-17T04:46:22.926Z,15.42
2022-08-17T04:47:22.901Z,15.43
2022-08-17T04:48:22.896Z,15.43
2022-08-17T04:49:23.854Z,15.43
2022-08-17T04:50:22.866Z,15.43
2022-08-17T04:51:22.864Z,15.42
2022-08-17T04:52:31.548Z,15.39
2022-08-17T04:53:23.832Z,15.38
2022-08-17T04:54:22.820Z,15.38
2022-08-17T04:55:22.784Z,15.35
2022-08-17T04:56:22.786Z,15.33
2022-08-17T04:57:22.774Z,15.33
2022-08-17T04:58:22.757Z,15.36
2022-08-17T04:59:22.727Z,15.41
2022-08-17T05:00:22.733Z,15.42
2022-08-17T05:01:23.938Z,15.43
2022-08-17T05:02:22.697Z,15.46
2022-08-17T05:03:22.696Z,15.49
2022-08-17T05:04:33.990Z,15.51
2022-08-17T05:05:23.656Z,15.52
2022-08-17T05:06:22.659Z,15.54
2022-08-17T05:07:24.637Z,15.54
2022-08-17T05:08:22.638Z,15.54
2022-08-17T05:09:22.600Z,15.54
2022-08-17T05:10:22.589Z,15.54
2022-08-17T05:11:22.587Z,15.54
2022-08-17T05:12:22.618Z,15.56
2022-08-17T05:13:22.568Z,15.60
2022-08-17T05:14:22.538Z,15.60
2022-08-17T05:15:23.530Z,15.61
2022-08-17T05:16:22.522Z,15.66
2022-08-17T05:17:22.500Z,15.67
2022-08-17T05:18:22.501Z,15.72
2022-08-17T05:19:22.477Z,15.75
2022-08-17T05:20:22.566Z,15.76
2022-08-17T05:21:22.448Z,15.78
2022-08-17T05:22:22.440Z,15.84
2022-08-17T05:23:22.430Z,15.86
2022-08-17T05:24:38.591Z,15.92
2022-08-17T05:25:25.583Z,15.96
2022-08-17T05:26:26.471Z,16.00
2022-08-17T05:27:22.381Z,16.04
2022-08-17T05:28:27.364Z,16.09
2022-08-17T05:29:23.350Z,16.15
2022-08-17T05:30:23.342Z,16.18
2022-08-17T05:31:22.341Z,16.22
2022-08-17T05:32:37.921Z,16.22
2022-08-17T05:33:23.306Z,16.25
2022-08-17T05:34:22.316Z,16.33
2022-08-17T05:35:22.284Z,16.37
2022-08-17T05:36:43.175Z,16.38
2022-08-17T05:37:23.243Z,16.41
2022-08-17T05:38:22.258Z,16.44
2022-08-17T05:39:22.222Z,16.49
2022-08-17T05:40:22.204Z,16.50
2022-08-17T05:41:22.200Z,16.55
2022-08-17T05:42:22.192Z,16.59
2022-08-17T05:43:22.174Z,16.62
2022-08-17T05:44:22.161Z,16.63
2022-08-17T05:45:46.114Z,16.70
2022-08-17T05:46:23.137Z,16.75
2022-08-17T05:47:22.117Z,16.83
2022-08-17T05:48:22.123Z,16.86
2022-08-17T05:49:23.087Z,16.95
2022-08-17T05:50:26.077Z,17.03
2022-08-17T05:51:23.066Z,17.07
2022-08-17T05:52:22.061Z,17.17
2022-08-17T05:53:22.058Z,17.28
2022-08-17T05:54:22.026Z,17.36
2022-08-17T05:55:22.018Z,17.47
2022-08-17T05:56:29.541Z,17.54
2022-08-17T05:57:22.999Z,17.66
2022-08-17T05:58:21.986Z,17.74
2022-08-17T05:59:21.968Z,17.82
2022-08-17T06:00:21.965Z,17.89
2022-08-17T06:01:23.018Z,17.99
2022-08-17T06:02:21.928Z,18.04
2022-08-17T06:03:21.911Z,18.12
2022-08-17T06:04:21.911Z,18.18
2022-08-17T06:05:21.881Z,18.24
2022-08-17T06:06:21.873Z,18.27
2022-08-17T06:07:21.872Z,18.33
2022-08-17T06:08:21.847Z,18.37
2022-08-17T06:09:27.690Z,18.42
2022-08-17T06:10:22.836Z,18.47
2022-08-17T06:11:22.806Z,18.55
2022-08-17T06:12:21.801Z,18.61
2022-08-17T06:13:21.789Z,18.67
2022-08-17T06:14:21.781Z,18.70
2022-08-17T06:15:21.764Z,18.77
2022-08-17T06:16:33.689Z,18.80
2022-08-17T06:17:22.726Z,18.86
2022-08-17T06:18:21.719Z,18.91
2022-08-17T06:19:21.730Z,18.94
2022-08-17T06:20:21.702Z,18.99
2022-08-17T06:21:22.420Z,19.05
2022-08-17T06:22:22.673Z,19.11
2022-08-17T06:23:21.655Z,19.14
2022-08-17T06:24:21.654Z,19.17
2022-08-17T06:25:21.633Z,19.21
2022-08-17T06:26:21.622Z,19.23
2022-08-17T06:27:21.594Z,19.29
2022-08-17T06:28:21.627Z,19.32
2022-08-17T06:29:21.575Z,19.35
2022-08-17T06:30:21.568Z,19.39
2022-08-17T06:31:21.564Z,19.42
2022-08-17T06:32:21.537Z,19.46
2022-08-17T06:33:21.537Z,19.50
2022-08-17T06:34:21.526Z,19.50
2022-08-17T06:35:21.497Z,19.51
2022-08-17T06:36:21.488Z,19.50
2022-08-17T06:37:21.476Z,19.50
2022-08-17T06:38:37.204Z,19.47
2022-08-17T06:39:22.448Z,19.46
2022-08-17T06:40:21.444Z,19.43
2022-08-17T06:41:21.427Z,19.40
2022-08-17T06:42:54.882Z,19.42
2022-08-17T06:43:22.387Z,19.42
2022-08-17T06:44:43.693Z,19.40
2022-08-17T06:45:22.389Z,19.42
2022-08-17T06:46:21.359Z,19.43
2022-08-17T06:47:28.559Z,19.43
2022-08-17T06:48:22.367Z,19.43
2022-08-17T06:49:21.351Z,19.46
2022-08-17T06:50:21.310Z,19.48
2022-08-17T06:51:21.292Z,19.51
2022-08-17T06:52:43.419Z,19.53
2022-08-17T06:53:22.260Z,19.57
2022-08-17T06:54:21.262Z,19.58
2022-08-17T06:55:21.331Z,19.61
2022-08-17T06:56:21.231Z,19.66
2022-08-17T06:57:21.210Z,19.70
2022-08-17T06:58:21.203Z,19.75
2022-08-17T06:59:21.183Z,19.79
2022-08-17T07:00:21.194Z,19.83
2022-08-17T07:01:21.221Z,19.87
2022-08-17T07:02:29.068Z,19.91
2022-08-17T07:03:22.157Z,19.97
2022-08-17T07:04:21.123Z,20.00
2022-08-17T07:05:21.130Z,20.05
2022-08-17T07:06:21.094Z,20.09
2022-08-17T07:07:21.083Z,20.13
2022-08-17T07:08:21.087Z,20.18
2022-08-17T07:09:21.090Z,20.23
2022-08-17T07:10:21.065Z,20.27
2022-08-17T07:11:21.024Z,20.33
2022-08-17T07:12:21.048Z,20.38
2022-08-17T07:13:21.014Z,20.42
2022-08-17T07:14:21.004Z,20.47
2022-08-17T07:15:21.016Z,20.50
2022-08-17T07:16:20.976Z,20.54
2022-08-17T07:17:20.977Z,20.62
2022-08-17T07:18:20.955Z,20.65
2022-08-17T07:19:20.934Z,20.71
2022-08-17T07:20:20.944Z,20.77
2022-08-17T07:21:25.866Z,20.81
2022-08-17T07:22:21.899Z,20.84
2022-08-17T07:23:20.887Z,20.87
2022-08-17T07:24:29.701Z,20.93
2022-08-17T07:25:21.867Z,20.96
2022-08-17T07:26:20.870Z,21.01
2022-08-17T07:27:20.834Z,21.05
2022-08-17T07:28:20.819Z,21.09
2022-08-17T07:29:20.809Z,21.14
2022-08-17T07:30:20.823Z,21.20
2022-08-17T07:31:20.791Z,21.26
2022-08-17T07:32:20.790Z,21.30
2022-08-17T07:33:20.759Z,21.38
2022-08-17T07:34:20.755Z,21.44
2022-08-17T07:35:20.750Z,21.51
2022-08-17T07:36:20.719Z,21.57
2022-08-17T07:37:20.713Z,21.64
2022-08-17T07:38:25.603Z,21.74
2022-08-17T07:39:21.687Z,21.79
2022-08-17T07:40:20.725Z,21.85
2022-08-17T07:41:20.652Z,21.91
2022-08-17T07:42:20.651Z,21.95
2022-08-17T07:43:23.484Z,22.01
2022-08-17T07:44:20.659Z,22.07
2022-08-17T07:45:20.623Z,22.10
2022-08-17T07:46:20.605Z,22.14
2022-08-17T07:47:20.574Z,22.19
2022-08-17T07:48:20.563Z,22.20
2022-08-17T07:49:20.543Z,22.25
2022-08-17T07:50:23.970Z,22.25
2022-08-17T07:51:21.529Z,22.28
2022-08-17T07:52:48.063Z,22.32
2022-08-17T07:53:21.485Z,22.34
2022-08-17T07:54:20.501Z,22.35
2022-08-17T07:55:20.485Z,22.39
2022-08-17T07:56:20.457Z,22.46
2022-08-17T07:57:20.440Z,22.52
2022-08-17T07:58:20.430Z,22.59
2022-08-17T07:59:23.323Z,22.64
2022-08-17T08:00:26.677Z,22.67
2022-08-17T08:01:21.408Z,22.72
2022-08-17T08:02:20.434Z,22.77
2022-08-17T08:03:20.378Z,22.80
2022-08-17T08:04:29.166Z,22.84
2022-08-17T08:05:48.547Z,22.92
2022-08-17T08:06:21.327Z,22.99
2022-08-17T08:07:20.310Z,23.07
2022-08-17T08:08:20.300Z,23.11
2022-08-17T08:09:20.279Z,23.19
2022-08-17T08:10:20.287Z,23.24
2022-08-17T08:11:20.260Z,23.29
2022-08-17T08:12:20.252Z,23.34
2022-08-17T08:13:20.229Z,23.38
2022-08-17T08:14:20.217Z,23.43
2022-08-17T08:15:20.244Z,23.45
2022-08-17T08:16:20.215Z,23.50
2022-08-17T08:17:20.180Z,23.58
2022-08-17T08:18:20.183Z,23.62
2022-08-17T08:19:21.286Z,23.71
2022-08-17T08:20:42.480Z,23.82
2022-08-17T08:21:21.127Z,23.90
2022-08-17T08:22:20.130Z,23.95
2022-08-17T08:23:20.130Z,24.01
2022-08-17T08:24:20.128Z,24.07
2022-08-17T08:25:20.112Z,24.14
2022-08-17T08:26:20.080Z,24.26
2022-08-17T08:27:20.059Z,24.35
2022-08-17T08:28:20.082Z,24.42
2022-08-17T08:29:20.027Z,24.50
2022-08-17T08:30:20.072Z,24.57
2022-08-17T08:31:19.994Z,24.63
2022-08-17T08:32:19.991Z,24.71
2022-08-17T08:33:19.984Z,24.82
2022-08-17T08:34:58.922Z,25.02
2022-08-17T08:35:20.976Z,25.22
2022-08-17T08:37:14.545Z,25.31
2022-08-17T08:37:32.595Z,25.43
2022-08-17T08:38:20.927Z,25.49
2022-08-17T08:39:19.897Z,25.54
2022-08-17T08:40:20.001Z,25.61
2022-08-17T08:41:19.869Z,25.62
2022-08-17T08:42:19.859Z,25.71
2022-08-17T08:43:19.866Z,25.75
2022-08-17T08:44:19.838Z,25.77
2022-08-17T08:45:19.864Z,25.80
2022-08-17T08:46:19.951Z,25.82
2022-08-17T08:47:19.812Z,25.84
2022-08-17T08:48:46.137Z,25.87
2022-08-17T08:49:33.805Z,25.91
2022-08-17T08:50:30.174Z,25.94
2022-08-17T08:51:20.760Z,25.99
2022-08-17T08:52:19.809Z,26.05
2022-08-17T08:53:19.739Z,26.08
2022-08-17T08:54:22.329Z,26.12
2022-08-17T08:55:20.741Z,26.18
2022-08-17T08:56:19.681Z,26.21
2022-08-17T08:57:33.365Z,26.28
2022-08-17T08:58:31.884Z,26.36
2022-08-17T08:59:20.659Z,26.44
2022-08-17T09:00:19.635Z,26.52
2022-08-17T09:01:19.748Z,26.59
2022-08-17T09:02:19.749Z,26.68
2022-08-17T09:03:19.596Z,26.79
2022-08-17T09:04:25.039Z,26.91
2022-08-17T09:05:20.581Z,27.01
2022-08-17T09:06:37.405Z,27.09
2022-08-17T09:07:20.548Z,27.11
2022-08-17T09:08:19.525Z,27.14
2022-08-17T09:09:19.526Z,27.17
2022-08-17T09:10:19.515Z,27.19
2022-08-17T09:11:19.488Z,27.24
2022-08-17T09:12:19.525Z,27.32
2022-08-17T09:13:19.484Z,27.39
2022-08-17T09:14:21.254Z,27.48
2022-08-17T09:15:19.457Z,27.58
2022-08-17T09:16:19.428Z,27.67
2022-08-17T09:17:19.421Z,27.73
2022-08-17T09:19:00.699Z,27.79
2022-08-17T09:19:20.392Z,27.80
2022-08-17T09:20:28.147Z,27.86
2022-08-17T09:21:20.359Z,27.94
2022-08-17T09:22:19.445Z,27.98
2022-08-17T09:23:19.350Z,27.99
2022-08-17T09:24:20.572Z,28.07
2022-08-17T09:25:19.330Z,28.11
2022-08-17T09:26:19.300Z,28.16
2022-08-17T09:27:19.291Z,28.17
2022-08-17T09:28:19.278Z,28.13
2022-08-17T09:29:19.262Z,28.07
2022-08-17T09:30:19.242Z,28.07
2022-08-17T09:31:19.258Z,28.11
2022-08-17T09:32:19.247Z,28.21
2022-08-17T09:33:19.288Z,28.32
2022-08-17T09:34:19.198Z,28.46
2022-08-17T09:35:19.194Z,28.56
2022-08-17T09:36:19.173Z,28.65
2022-08-17T09:37:19.164Z,28.73
2022-08-17T09:38:19.154Z,28.80
2022-08-17T09:39:19.141Z,28.88
2022-08-17T09:40:19.321Z,29.01
2022-08-17T09:41:19.116Z,29.10
2022-08-17T09:42:19.167Z,29.19
2022-08-17T09:43:19.142Z,29.23
2022-08-17T09:44:23.048Z,29.29
2022-08-17T09:45:19.089Z,29.37
2022-08-17T09:46:19.047Z,29.43
2022-08-17T09:47:19.046Z,29.45
2022-08-17T10:04:06.665Z,29.60
2022-08-17T10:05:06.666Z,29.55
2022-08-17T10:06:06.818Z,29.56
2022-08-17T10:07:06.625Z,29.63
2022-08-17T10:08:06.608Z,29.65
2022-08-17T10:09:06.598Z,29.68
2022-08-17T10:10:10.818Z,29.70
2022-08-17T10:11:07.577Z,29.70
2022-08-17T10:12:06.572Z,29.66
2022-08-17T10:13:06.549Z,29.66
2022-08-17T10:14:36.076Z,29.65
2022-08-17T10:15:07.976Z,29.74
2022-08-17T10:16:06.529Z,29.87
2022-08-17T10:17:06.502Z,30.05
2022-08-17T10:18:13.997Z,30.12
2022-08-17T10:19:06.469Z,30.00
2022-08-17T10:20:06.490Z,30.07
2022-08-17T10:21:06.449Z,30.15
2022-08-17T10:22:32.704Z,30.16
2022-08-17T10:23:07.419Z,30.30
2022-08-17T10:24:06.410Z,30.31
2022-08-17T10:25:22.778Z,30.21
2022-08-17T10:26:07.401Z,30.11
2022-08-17T10:27:06.371Z,30.16
2022-08-17T10:28:07.346Z,30.21
2022-08-17T10:29:07.342Z,30.19
2022-08-17T10:30:06.378Z,30.16
2022-08-17T10:32:07.325Z,30.15
2022-08-17T10:33:06.302Z,30.15
2022-08-17T10:34:06.285Z,30.14
2022-08-17T10:35:06.270Z,30.21
2022-08-17T10:36:10.569Z,30.29
2022-08-17T10:37:06.264Z,30.45
2022-08-17T10:38:06.224Z,30.59
2022-08-17T10:39:06.223Z,30.78
2022-08-17T10:40:06.220Z,30.98
2022-08-17T10:41:06.196Z,31.15
2022-08-17T10:42:06.187Z,31.30
2022-08-17T10:43:06.166Z,31.45
2022-08-17T10:44:37.560Z,31.58
2022-08-17T10:45:07.136Z,31.70
2022-08-17T10:46:10.650Z,31.80
2022-08-17T10:47:07.111Z,31.93
2022-08-17T10:48:07.169Z,31.99
2022-08-17T10:49:06.089Z,32.00
2022-08-17T10:50:06.097Z,32.00
2022-08-17T10:51:06.086Z,31.99
2022-08-17T10:52:06.058Z,31.98
2022-08-17T10:53:06.039Z,32.00
2022-08-17T10:54:06.029Z,32.10
2022-08-17T10:55:06.021Z,32.24
2022-08-17T10:56:06.019Z,32.40
2022-08-17T10:57:06.000Z,32.55
2022-08-17T10:58:06.002Z,32.62
2022-08-17T10:59:05.953Z,32.64
2022-08-17T11:00:06.017Z,32.67
2022-08-17T11:01:05.992Z,32.71
2022-08-17T11:02:05.943Z,32.71
2022-08-17T11:03:05.915Z,32.70
2022-08-17T11:04:05.902Z,32.59
2022-08-17T11:05:05.924Z,32.58
2022-08-17T11:06:05.894Z,32.54
2022-08-17T11:07:05.877Z,32.52
2022-08-17T11:08:05.865Z,32.51
2022-08-17T11:09:05.834Z,32.52
2022-08-17T11:10:05.831Z,32.51
2022-08-17T11:11:05.822Z,32.49
2022-08-17T11:12:05.806Z,32.49
2022-08-17T11:13:05.794Z,32.58
2022-08-17T11:14:05.786Z,32.76
2022-08-17T11:15:05.819Z,32.89
2022-08-17T11:16:08.435Z,32.85
2022-08-17T11:17:05.743Z,32.81
2022-08-17T11:18:05.761Z,32.67
2022-08-17T11:19:05.711Z,32.59
2022-08-17T11:20:05.708Z,32.61
2022-08-17T11:21:05.730Z,32.48
2022-08-17T11:22:05.715Z,32.47
2022-08-17T11:23:05.659Z,32.48
2022-08-17T11:24:05.658Z,32.47
2022-08-17T11:25:05.643Z,32.49
2022-08-17T11:26:05.639Z,32.51
2022-08-17T11:27:05.618Z,32.48
2022-08-17T11:28:05.611Z,32.40
2022-08-17T11:29:05.580Z,32.39
2022-08-17T11:30:05.590Z,32.32
2022-08-17T11:31:05.570Z,32.27
2022-08-17T11:32:05.562Z,32.15
2022-08-17T11:33:05.532Z,31.98
2022-08-17T11:34:05.529Z,31.92
2022-08-17T11:35:05.512Z,31.93
2022-08-17T11:36:05.517Z,31.88
2022-08-17T11:37:05.483Z,31.84
2022-08-17T11:38:05.482Z,31.76
2022-08-17T11:39:05.475Z,31.73
2022-08-17T11:40:05.558Z,31.70
2022-08-17T11:41:05.455Z,31.73
2022-08-17T11:42:05.425Z,31.80
2022-08-17T11:43:05.446Z,31.91
2022-08-17T11:44:05.405Z,31.95
2022-08-17T11:45:05.398Z,31.95
2022-08-17T11:46:05.386Z,32.07
2022-08-17T11:47:05.360Z,32.33
2022-08-17T11:49:06.342Z,33.10
2022-08-17T11:50:05.357Z,33.22
2022-08-17T11:51:05.309Z,33.26
2022-08-17T11:52:05.297Z,33.33
2022-08-17T11:53:05.310Z,33.07
2022-08-17T11:54:31.147Z,32.98
2022-08-17T11:55:31.768Z,32.88
2022-08-17T11:56:06.254Z,32.79
2022-08-17T11:57:05.264Z,32.73
2022-08-17T11:58:05.237Z,32.66
2022-08-17T11:59:05.219Z,32.73
2022-08-17T12:00:05.220Z,32.96
2022-08-17T12:01:06.195Z,32.98
2022-08-17T12:02:05.187Z,32.91
2022-08-17T12:03:05.193Z,32.80
2022-08-17T12:04:05.213Z,32.89
2022-08-17T12:05:05.189Z,33.42
2022-08-17T12:06:06.131Z,33.89
2022-08-17T12:07:05.123Z,34.16
2022-08-17T12:08:05.111Z,34.17
2022-08-17T12:09:05.088Z,34.46
2022-08-17T12:10:05.098Z,34.84
2022-08-17T12:11:05.075Z,35.14
2022-08-17T12:12:12.501Z,35.20
2022-08-17T12:13:06.045Z,35.15
2022-08-17T12:14:05.026Z,35.02
2022-08-17T12:15:12.429Z,34.83
2022-08-17T12:16:06.021Z,34.66
2022-08-17T12:17:05.000Z,34.46
2022-08-17T12:18:04.994Z,34.24
2022-08-17T12:19:04.970Z,34.27
2022-08-17T12:20:04.977Z,34.42
2022-08-17T12:21:04.978Z,34.53
2022-08-17T12:22:04.959Z,34.72
2022-08-17T12:23:04.909Z,34.79
2022-08-17T12:24:04.918Z,34.84
2022-08-17T12:25:04.893Z,35.03
2022-08-17T12:26:04.890Z,35.40
2022-08-17T12:27:04.890Z,35.26
2022-08-17T12:28:07.458Z,35.14
2022-08-17T12:29:05.216Z,35.29
2022-08-17T12:30:04.843Z,35.52
2022-08-17T12:31:04.833Z,35.95
2022-08-17T12:32:04.811Z,36.15
2022-08-17T12:33:04.801Z,35.92
2022-08-17T12:34:04.782Z,35.72
2022-08-17T12:35:04.805Z,35.39
2022-08-17T12:36:04.824Z,34.96
2022-08-17T12:37:04.753Z,34.69
2022-08-17T12:38:04.744Z,34.60
2022-08-17T12:39:12.889Z,34.64
2022-08-17T12:40:05.796Z,34.92
2022-08-17T12:41:04.706Z,34.76
2022-08-17T12:42:04.701Z,34.07
2022-08-17T12:43:04.664Z,33.67
2022-08-17T12:44:04.656Z,34.02
2022-08-17T12:45:04.647Z,34.73
2022-08-17T12:46:13.380Z,35.69
2022-08-17T12:47:05.624Z,36.80
2022-08-17T12:48:04.616Z,37.59
2022-08-17T12:49:04.589Z,38.18
2022-08-17T12:50:05.638Z,38.89
2022-08-17T12:51:04.586Z,39.67
2022-08-17T12:52:04.566Z,40.23
2022-08-17T12:53:04.548Z,40.59
2022-08-17T12:54:04.538Z,40.42
2022-08-17T12:55:04.529Z,40.56
2022-08-17T12:56:04.529Z,40.32
2022-08-17T12:57:04.507Z,40.45
2022-08-17T12:58:04.505Z,40.30
2022-08-17T12:59:04.479Z,39.55
2022-08-17T13:00:04.534Z,39.99
2022-08-17T13:01:04.476Z,40.54
2022-08-17T13:02:04.514Z,40.12
2022-08-17T13:03:04.432Z,39.24
2022-08-17T13:04:04.432Z,39.44
2022-08-17T13:05:04.423Z,39.51
2022-08-17T13:06:04.411Z,39.56
2022-08-17T13:07:04.383Z,39.76
2022-08-17T13:08:04.374Z,39.90
2022-08-17T13:09:04.362Z,39.01
2022-08-17T13:10:04.421Z,37.90
2022-08-17T13:11:04.325Z,37.19
2022-08-17T13:12:05.180Z,36.58
2022-08-17T13:13:04.307Z,36.11
2022-08-17T13:14:04.295Z,35.77
2022-08-17T13:15:04.285Z,35.47
2022-08-17T13:16:04.276Z,34.95
2022-08-17T13:17:07.143Z,34.45
2022-08-17T13:18:05.247Z,33.89
2022-08-17T13:19:04.239Z,33.49
2022-08-17T13:20:04.256Z,33.23
2022-08-17T13:21:04.221Z,32.89
2022-08-17T13:22:04.397Z,32.80
2022-08-17T13:23:07.492Z,32.92
2022-08-17T13:24:05.185Z,33.86
2022-08-17T13:25:04.152Z,34.17